Time;durP1;ratioP1;P1;durP2;ratioP2;P2;SDS_P1;SDS_P2;PMS_P1;PMS_P2;Temp;Humidity;BMP_temperature;BMP_pressure;BME280_temperature;BME280_humidity;BME280_pressure;Samples;Min_cycle;Max_cycle;Signal;HPM_P1;HPM_P2
2022/04/21 00:00:57;;;;;;;2.37;1.90;;;;;;;6.18;82.67;98823.47;1706993;81;21042;-51
2022/04/21 00:03:23;;;;;;;2.40;2.17;;;;;;;6.18;82.77;98831.48;1714518;81;21030;-51
2022/04/21 00:05:51;;;;;;;2.90;2.67;;;;;;;6.18;82.85;98824.81;1716682;81;21703;-51
2022/04/21 00:08:20;;;;;;;2.60;2.40;;;;;;;6.19;82.92;98820.33;1716486;81;22400;-51
2022/04/21 00:10:47;;;;;;;3.00;2.80;;;;;;;6.18;82.98;98819.47;1714589;81;21062;-51
2022/04/21 00:13:15;;;;;;;3.23;3.03;;;;;;;6.18;83.00;98819.93;1715617;81;21164;-52
2022/04/21 00:15:42;;;;;;;4.43;3.00;;;;;;;6.16;83.08;98820.00;1710144;81;21093;-51
2022/04/21 00:18:10;;;;;;;2.43;2.23;;;;;;;6.17;83.16;98818.19;1710724;81;21085;-51
2022/04/21 00:20:36;;;;;;;2.60;2.40;;;;;;;6.18;83.16;98818.59;1708117;82;21148;-51
2022/04/21 00:24:03;;;;;;;2.50;2.30;;;;;;;6.19;83.21;98812.31;1706332;82;21133;-51
2022/04/21 00:25:42;;;;;;;4.10;2.00;;;;;;;6.19;83.29;98814.98;1678418;82;21090;-51
2022/04/21 00:28:09;;;;;;;3.17;2.93;;;;;;;6.19;83.29;98812.31;1706236;82;21503;-51
2022/04/21 00:30:36;;;;;;;3.30;3.00;;;;;;;6.18;83.33;98815.45;1707897;82;21109;-51
2022/04/21 00:33:03;;;;;;;4.27;3.60;;;;;;;6.18;83.39;98813.25;1671193;83;21154;-51
2022/04/21 00:35:31;;;;;;;4.13;3.77;;;;;;;6.16;83.41;98814.65;1649473;85;21525;-51
2022/04/21 00:37:58;;;;;;;4.77;3.27;;;;;;;6.13;83.41;98812.57;1648528;86;21597;-51
2022/04/21 00:40:27;;;;;;;2.87;2.67;;;;;;;6.11;83.42;98820.69;1664383;84;21520;-50
2022/04/21 00:42:56;;;;;;;3.90;2.93;;;;;;;6.10;83.51;98816.27;1651229;84;21071;-50
2022/04/21 00:45:24;;;;;;;2.83;2.63;;;;;;;6.09;83.58;98810.52;1642659;85;21089;-50
2022/04/21 00:47:53;;;;;;;3.17;2.80;;;;;;;6.07;83.59;98808.38;1648150;86;21095;-50
2022/04/21 00:50:25;;;;;;;2.80;2.53;;;;;;;6.05;83.63;98808.45;1651517;84;21019;-49
2022/04/21 00:52:53;;;;;;;3.23;2.93;;;;;;;6.05;83.68;98812.45;1651303;86;21095;-49
2022/04/21 00:55:20;;;;;;;3.30;3.10;;;;;;;6.04;83.74;98810.72;1652144;86;21110;-50
2022/04/21 00:57:48;;;;;;;2.83;2.53;;;;;;;6.05;83.78;98804.91;1648761;84;21182;-50
2022/04/21 01:00:16;;;;;;;3.57;2.67;;;;;;;6.06;83.85;98804.84;1647329;86;21110;-50
2022/04/21 01:02:46;;;;;;;3.70;3.40;;;;;;;6.05;83.83;98800.90;1648279;85;21027;-49
2022/04/21 01:05:28;;;;;;;2.70;2.47;;;;;;;6.04;83.80;98806.70;1671824;83;21140;-50
2022/04/21 01:08:06;;;;;;;3.50;3.20;;;;;;;6.03;83.86;98799.66;1650828;86;21142;-51
2022/04/21 01:10:35;;;;;;;2.70;2.50;;;;;;;6.02;83.81;98793.91;1651124;86;21900;-50
2022/04/21 01:13:06;;;;;;;3.37;3.07;;;;;;;6.02;83.87;98788.56;1648318;86;21409;-49
2022/04/21 01:15:35;;;;;;;2.53;2.33;;;;;;;6.05;83.92;98788.41;1644012;85;21349;-50
2022/04/21 01:18:03;;;;;;;2.43;2.23;;;;;;;6.09;83.94;98787.81;1651697;86;21118;-49
2022/04/21 01:20:31;;;;;;;4.00;3.70;;;;;;;6.12;83.92;98790.83;1668823;84;21764;-50
2022/04/21 01:22:58;;;;;;;3.60;3.30;;;;;;;6.12;83.88;98782.34;1743833;81;21442;-50
2022/04/21 01:25:24;;;;;;;4.20;3.80;;;;;;;6.11;83.81;98784.61;1741687;80;20963;-50
2022/04/21 01:27:57;;;;;;;4.60;4.30;;;;;;;6.09;83.84;98787.81;1702219;83;21013;-49
2022/04/21 01:30:23;;;;;;;4.83;4.43;;;;;;;6.07;83.87;98789.68;1741910;80;20978;-50
2022/04/21 01:32:51;;;;;;;3.67;3.47;;;;;;;6.05;83.86;98787.08;1741230;81;21021;-50
2022/04/21 01:35:17;;;;;;;3.50;3.00;;;;;;;6.05;83.92;98782.20;1742316;80;21558;-49
2022/04/21 01:43:16;;;;;;;5.70;2.70;;;;;;;6.10;84.08;98772.19;1739902;81;21121;-50
2022/04/21 01:45:44;;;;;;;3.17;2.93;;;;;;;6.10;84.08;98772.19;1740916;80;20922;-50
2022/04/21 01:48:10;;;;;;;4.03;3.63;;;;;;;6.11;84.05;98771.72;1735661;80;22226;-50
2022/04/21 01:50:38;;;;;;;4.20;3.90;;;;;;;6.12;84.07;98773.46;1740291;81;20923;-49
2022/04/21 01:53:05;;;;;;;4.80;3.87;;;;;;;6.10;84.02;98773.52;1738982;81;21056;-49
2022/04/21 01:55:31;;;;;;;4.73;4.27;;;;;;;6.10;84.04;98765.98;1733718;80;21112;-50
2022/04/21 01:57:58;;;;;;;5.07;4.57;;;;;;;6.08;84.08;98774.92;1701088;83;21534;-49
2022/04/21 02:00:25;;;;;;;3.87;3.57;;;;;;;6.09;84.06;98769.11;1673618;85;22083;-50
2022/04/21 02:02:51;;;;;;;3.90;3.47;;;;;;;6.10;84.04;98770.85;1739141;81;20927;-49
2022/04/21 02:05:18;;;;;;;3.10;2.80;;;;;;;6.12;84.05;98770.32;1738385;81;21019;-49
2022/04/21 02:07:45;;;;;;;5.17;3.67;;;;;;;6.13;84.07;98769.82;1704707;82;21601;-50
2022/04/21 02:10:14;;;;;;;3.40;3.17;;;;;;;6.15;84.06;98777.30;1738357;81;21401;-48
2022/04/21 02:12:41;;;;;;;2.87;2.67;;;;;;;6.14;84.03;98766.22;1736795;81;21813;-49
2022/04/21 02:15:09;;;;;;;3.40;3.07;;;;;;;6.15;84.05;98766.62;1736930;81;21332;-50
2022/04/21 02:17:36;;;;;;;3.63;3.33;;;;;;;6.16;84.08;98766.55;1739945;80;20926;-48
2022/04/21 02:20:08;;;;;;;4.13;3.53;;;;;;;6.16;84.08;98759.88;1738905;81;21068;-48
2022/04/21 02:22:36;;;;;;;6.30;4.97;;;;;;;6.14;84.04;98760.41;1745915;81;20942;-49
2022/04/21 02:25:04;;;;;;;4.90;4.50;;;;;;;6.12;84.09;98767.65;1746402;81;21496;-48
2022/04/21 02:27:31;;;;;;;4.27;3.60;;;;;;;6.11;84.06;98758.36;1750119;80;21049;-49
2022/04/21 02:29:57;;;;;;;4.40;4.00;;;;;;;6.11;84.08;98763.70;1748000;80;21687;-48
2022/04/21 02:32:24;;;;;;;3.43;3.23;;;;;;;6.09;84.13;98759.77;1743961;81;21581;-49
2022/04/21 02:34:53;;;;;;;3.70;3.40;;;;;;;6.07;84.18;98761.16;1747525;81;21049;-51
2022/04/21 02:37:21;;;;;;;3.67;3.47;;;;;;;6.08;84.27;98760.70;1743265;81;21025;-50
2022/04/21 02:39:49;;;;;;;5.10;4.80;;;;;;;6.10;84.31;98760.16;1749133;81;20917;-49
2022/04/21 02:42:18;;;;;;;4.47;4.07;;;;;;;6.11;84.33;98760.57;1740557;81;21409;-49
2022/04/21 02:44:45;;;;;;;4.23;3.97;;;;;;;6.10;84.33;98758.83;1746797;81;20942;-50
2022/04/21 02:47:11;;;;;;;4.40;4.10;;;;;;;6.07;84.29;98759.83;1747536;81;21084;-48
2022/04/21 02:49:40;;;;;;;4.97;4.67;;;;;;;6.05;84.34;98761.70;1743683;81;21081;-49
2022/04/21 02:52:09;;;;;;;4.27;3.97;;;;;;;6.03;84.36;98751.57;1741126;80;21070;-50
2022/04/21 02:57:23;;;;;;;3.50;3.30;;;;;;;6.03;84.41;98754.71;1745239;81;21363;-50
2022/04/21 02:59:57;;;;;;;4.13;3.83;;;;;;;6.01;84.47;98761.45;1742949;81;21627;-51
2022/04/21 03:02:24;;;;;;;3.65;3.42;;;;;;;6.03;84.55;98754.71;1714867;81;21157;-50
2022/04/21 03:04:52;;;;;;;5.27;4.47;;;;;;;6.02;84.54;98756.52;1746222;81;21023;-50
2022/04/21 03:07:24;;;;;;;5.70;5.20;;;;;;;6.04;84.57;98759.09;1745897;80;21657;-51
2022/04/21 03:09:50;;;;;;;5.27;4.97;;;;;;;6.02;84.60;98757.84;1743170;81;21077;-51
2022/04/21 03:12:17;;;;;;;6.17;5.50;;;;;;;6.03;84.63;98754.71;1746082;81;20973;-49
2022/04/21 03:14:44;;;;;;;5.97;5.47;;;;;;;6.03;84.66;98757.38;1746476;80;21077;-50
2022/04/21 03:17:10;;;;;;;5.20;4.87;;;;;;;6.02;84.61;98754.31;1748358;81;21524;-50
2022/04/21 03:19:38;;;;;;;5.30;4.90;;;;;;;6.03;84.61;98757.38;1744580;81;21607;-49
2022/04/21 03:24:50;;;;;;;5.20;4.80;;;;;;;6.04;84.63;98758.62;1708525;82;21086;-50
2022/04/21 03:27:18;;;;;;;4.57;4.07;;;;;;;6.06;84.62;98762.09;1702829;82;21074;-51
2022/04/21 03:29:45;;;;;;;4.87;4.43;;;;;;;6.07;84.58;98761.16;1704806;82;21376;-49
2022/04/21 03:32:13;;;;;;;4.33;3.97;;;;;;;6.07;84.57;98755.82;1671571;83;21131;-49
2022/04/21 03:34:43;;;;;;;6.10;5.47;;;;;;;6.08;84.62;98759.36;1671441;83;21072;-50
2022/04/21 03:37:13;;;;;;;5.67;5.27;;;;;;;6.06;84.58;98755.88;1642355;85;21094;-50
2022/04/21 03:39:40;;;;;;;6.93;6.33;;;;;;;6.05;84.55;98756.81;1657453;85;21167;-51
2022/04/21 03:42:07;;;;;;;6.03;5.60;;;;;;;6.04;84.60;98761.76;1658674;85;21535;-48
2022/04/21 03:44:38;;;;;;;5.77;5.20;;;;;;;6.04;84.71;98755.95;1646863;85;21649;-49
2022/04/21 03:47:06;;;;;;;4.80;4.40;;;;;;;6.06;84.73;98758.09;1647200;83;22521;-51
2022/04/21 03:49:32;;;;;;;4.57;4.27;;;;;;;6.07;84.79;98750.48;1651186;86;21628;-50
2022/04/21 03:51:58;;;;;;;6.27;5.70;;;;;;;6.08;84.77;98751.34;1648714;85;21166;-50
2022/04/21 03:54:26;;;;;;;5.43;4.87;;;;;;;6.10;84.73;98752.16;1654376;85;21076;-50
2022/04/21 03:56:53;;;;;;;6.37;5.77;;;;;;;6.10;84.68;98746.80;1659430;84;21511;-50
2022/04/21 03:59:21;;;;;;;5.17;4.67;;;;;;;6.10;84.64;98751.28;1661441;85;21717;-51
2022/04/21 04:01:47;;;;;;;4.43;4.03;;;;;;;6.09;84.65;98755.75;1660343;85;21548;-50
2022/04/21 04:04:15;;;;;;;6.60;4.97;;;;;;;6.08;84.72;98760.23;1656782;85;21582;-50
2022/04/21 04:12:12;;;;;;;7.55;6.60;;;;;;;6.16;84.83;98757.20;1655188;85;20231;-50
2022/04/21 04:14:39;;;;;;;7.13;6.43;;;;;;;6.16;84.86;98760.34;1647563;86;21263;-50
2022/04/21 04:17:06;;;;;;;6.83;6.23;;;;;;;6.16;84.88;98757.67;1675854;83;23042;-48
2022/04/21 04:19:34;;;;;;;6.77;6.13;;;;;;;6.19;84.94;98760.21;1646632;86;21062;-50
2022/04/21 04:22:02;;;;;;;6.17;5.57;;;;;;;6.21;84.80;98761.02;1662188;84;21332;-49
2022/04/21 04:24:29;;;;;;;6.00;5.43;;;;;;;6.21;84.86;98760.52;1706645;82;21042;-50
2022/04/21 04:26:57;;;;;;;6.77;6.20;;;;;;;6.24;84.91;98763.52;1706228;82;21058;-49
2022/04/21 04:29:23;;;;;;;5.27;4.77;;;;;;;6.26;84.88;98769.20;1705641;82;21154;-51
2022/04/21 04:31:52;;;;;;;6.10;5.60;;;;;;;6.28;84.87;98763.80;1706982;82;21114;-51
2022/04/21 04:34:21;;;;;;;5.27;4.90;;;;;;;6.30;84.82;98768.58;1709695;82;21026;-49
2022/04/21 04:36:47;;;;;;;5.77;5.03;;;;;;;6.33;84.63;98769.31;1710791;82;21037;-48
2022/04/21 04:39:15;;;;;;;6.60;5.73;;;;;;;6.32;84.42;98769.38;1670563;83;21018;-49
2022/04/21 04:44:27;;;;;;;7.67;7.07;;;;;;;6.32;84.26;98773.39;1647917;85;21420;-51
2022/04/21 04:46:55;;;;;;;7.80;7.00;;;;;;;6.28;84.02;98776.69;1648584;86;21024;-51
2022/04/21 04:49:21;;;;;;;6.97;5.87;;;;;;;6.26;83.85;98776.35;1643806;86;21431;-51
2022/04/21 04:51:48;;;;;;;7.13;5.03;;;;;;;6.24;83.72;98779.56;1643996;85;20996;-50
2022/04/21 04:54:15;;;;;;;5.80;5.27;;;;;;;6.20;83.59;98779.32;1650967;86;21534;-49
2022/04/21 04:56:43;;;;;;;5.63;4.93;;;;;;;6.15;83.46;98773.30;1653120;85;21565;-49
2022/04/21 04:59:09;;;;;;;5.57;4.97;;;;;;;6.11;83.48;98780.61;1648600;86;21017;-49
2022/04/21 05:01:41;;;;;;;5.80;5.30;;;;;;;6.11;83.48;98776.59;1647611;85;20881;-51
2022/04/21 05:04:11;;;;;;;5.57;5.13;;;;;;;6.12;83.45;98778.80;1647590;85;20961;-49
2022/04/21 05:06:44;;;;;;;6.13;5.30;;;;;;;6.11;83.48;98779.27;1651507;86;21611;-50
2022/04/21 05:09:15;;;;;;;4.93;4.57;;;;;;;6.13;83.57;98780.05;1653553;86;20955;-48
2022/04/21 05:11:46;;;;;;;6.47;5.80;;;;;;;6.15;83.52;98779.98;1642532;85;20890;-50
2022/04/21 05:14:13;;;;;;;5.80;5.20;;;;;;;6.17;83.47;98776.31;1642372;86;22441;-49
2022/04/21 05:16:41;;;;;;;6.70;6.10;;;;;;;6.18;83.33;98778.52;1651616;86;20966;-49
2022/04/21 05:19:09;;;;;;;6.50;6.00;;;;;;;6.17;83.16;98784.33;1653160;86;21479;-48
2022/04/21 05:21:38;;;;;;;5.10;4.70;;;;;;;6.12;82.91;98781.01;1666393;83;21629;-51
2022/04/21 05:24:06;;;;;;;4.90;4.50;;;;;;;6.06;82.88;98784.80;1652124;85;21049;-48
2022/04/21 05:26:33;;;;;;;9.30;4.90;;;;;;;6.03;82.87;98780.09;1729957;81;20919;-49
2022/04/21 05:29:01;;;;;;;5.00;4.47;;;;;;;6.01;83.01;98784.62;1730203;80;20884;-50
2022/04/21 05:31:30;;;;;;;5.10;4.07;;;;;;;6.02;83.08;98783.23;1726990;81;21078;-49
2022/04/21 05:33:58;;;;;;;4.23;3.43;;;;;;;6.05;83.13;98782.20;1725726;81;21085;-50
2022/04/21 05:36:25;;;;;;;4.03;3.73;;;;;;;6.09;83.19;98781.14;1729268;80;20871;-48
2022/04/21 05:38:53;;;;;;;4.07;3.70;;;;;;;6.14;83.22;98783.12;1731490;81;21670;-50
2022/04/21 05:41:20;;;;;;;7.63;5.83;;;;;;;6.18;83.14;98787.40;1733855;80;21077;-50
2022/04/21 05:43:49;;;;;;;6.43;4.90;;;;;;;6.22;83.05;98790.31;1733026;81;21118;-49
2022/04/21 05:46:17;;;;;;;6.40;5.70;;;;;;;6.21;82.94;98787.23;1733036;81;21587;-49
2022/04/21 05:48:45;;;;;;;7.40;6.17;;;;;;;6.20;82.84;98791.34;1724337;80;21058;-51
2022/04/21 05:51:12;;;;;;;5.63;5.13;;;;;;;6.19;82.77;98789.14;1716443;81;21137;-51
2022/04/21 05:53:40;;;;;;;4.87;4.00;;;;;;;6.19;82.78;98791.81;1731731;81;21086;-48
2022/04/21 05:56:09;;;;;;;4.40;4.07;;;;;;;6.18;82.80;98798.55;1730304;81;20982;-49
2022/04/21 05:58:37;;;;;;;4.87;4.40;;;;;;;6.20;82.83;98800.70;1731771;80;21327;-47
2022/04/21 06:01:08;;;;;;;5.87;5.17;;;;;;;6.17;82.81;98792.34;1722570;81;21041;-49
2022/04/21 06:03:37;;;;;;;7.70;5.27;;;;;;;6.17;82.80;98796.81;1734812;81;21058;-50
2022/04/21 06:06:08;;;;;;;5.97;5.07;;;;;;;6.19;82.94;98801.62;1729403;81;21034;-48
2022/04/21 06:08:36;;;;;;;5.63;5.17;;;;;;;6.22;82.96;98804.14;1735447;80;21870;-49
2022/04/21 06:11:05;;;;;;;5.37;4.97;;;;;;;6.24;82.86;98799.14;1732873;81;21501;-50
2022/04/21 06:13:34;;;;;;;7.70;6.33;;;;;;;6.27;82.73;98801.68;1726355;81;21394;-48
2022/04/21 06:16:00;;;;;;;6.20;5.67;;;;;;;6.29;82.72;98797.60;1733323;81;21026;-49
2022/04/21 06:18:27;;;;;;;5.97;5.43;;;;;;;6.31;82.73;98798.38;1726926;81;21038;-49
2022/04/21 06:20:55;;;;;;;5.67;5.27;;;;;;;6.32;82.56;98802.32;1728055;81;21057;-50
2022/04/21 06:23:21;;;;;;;7.33;6.70;;;;;;;6.32;82.49;98804.13;1720859;81;21160;-48
2022/04/21 06:25:58;;;;;;;7.70;6.90;;;;;;;6.33;82.44;98808.53;1670059;83;21029;-49
2022/04/21 06:28:21;;;;;;;7.17;6.47;;;;;;;6.30;82.32;98808.66;1649574;86;21094;-49
2022/04/21 06:30:49;;;;;;;7.70;6.60;;;;;;;6.29;82.29;98806.95;1647864;85;21038;-49
2022/04/21 06:33:15;;;;;;;9.67;6.60;;;;;;;6.30;82.35;98801.98;1674784;83;21142;-48
2022/04/21 06:35:44;;;;;;;7.47;6.87;;;;;;;6.28;82.47;98803.88;1673745;83;21066;-50
2022/04/21 06:38:14;;;;;;;6.87;6.37;;;;;;;6.30;82.57;98804.19;1650368;86;20924;-51
2022/04/21 06:40:42;;;;;;;6.37;5.87;;;;;;;6.31;82.62;98800.58;1652336;86;21148;-50
2022/04/21 06:48:42;;;;;;;6.20;5.73;;;;;;;6.38;82.65;98823.41;1653082;86;21078;-51
2022/04/21 06:51:09;;;;;;;6.17;5.60;;;;;;;6.38;82.64;98819.41;1651886;86;21111;-52
2022/04/21 06:53:36;;;;;;;7.97;7.37;;;;;;;6.38;82.62;98818.56;1650319;86;21047;-50
2022/04/21 06:56:04;;;;;;;8.40;7.67;;;;;;;6.37;82.73;98827.52;1657193;85;21482;-50
2022/04/21 06:58:31;;;;;;;8.07;6.47;;;;;;;6.37;82.69;98828.39;1661123;85;21153;-51
2022/04/21 07:00:58;;;;;;;6.57;5.97;;;;;;;6.37;82.58;98827.05;1656668;85;21107;-51
2022/04/21 07:03:27;;;;;;;6.53;5.90;;;;;;;6.35;82.54;98824.91;1660252;85;21063;-51
2022/04/21 07:05:55;;;;;;;9.37;6.97;;;;;;;6.35;82.55;98820.91;1660098;85;21083;-50
2022/04/21 07:08:22;;;;;;;7.10;6.33;;;;;;;6.37;82.64;98824.84;1659190;85;21690;-52
2022/04/21 07:10:49;;;;;;;6.07;5.57;;;;;;;6.39;82.82;98821.61;1672538;83;22629;-51
2022/04/21 07:13:17;;;;;;;7.43;6.87;;;;;;;6.44;82.89;98820.95;1649235;85;21492;-51
2022/04/21 07:15:43;;;;;;;7.60;6.57;;;;;;;6.47;82.81;98827.47;1651917;86;21204;-51
2022/04/21 07:18:11;;;;;;;7.73;6.47;;;;;;;6.51;82.77;98825.06;1646864;86;21071;-52
2022/04/21 07:20:38;;;;;;;6.80;6.20;;;;;;;6.55;82.97;98825.80;1649142;86;21032;-52
2022/04/21 07:23:05;;;;;;;6.57;5.97;;;;;;;6.59;83.04;98826.91;1648262;86;21525;-52
2022/04/21 07:25:33;;;;;;;6.47;5.97;;;;;;;6.64;82.97;98822.67;1672328;84;20984;-51
2022/04/21 07:27:59;;;;;;;7.40;6.80;;;;;;;6.68;82.93;98818.92;1732613;80;21450;-50
2022/04/21 07:30:27;;;;;;;7.63;6.63;;;;;;;6.71;82.80;98818.33;1692805;83;20924;-50
2022/04/21 07:35:41;;;;;;;8.57;6.90;;;;;;;6.86;82.77;98811.37;1794402;78;22428;-49
2022/04/21 07:38:09;;;;;;;9.07;8.17;;;;;;;6.86;82.76;98816.72;1771273;79;21050;-48
2022/04/21 07:40:38;;;;;;;9.70;8.90;;;;;;;6.91;82.69;98828.05;1767433;79;23617;-49
2022/04/21 07:43:08;;;;;;;11.47;8.17;;;;;;;6.94;82.60;98825.71;1770990;79;20997;-48
2022/04/21 07:45:44;;;;;;;12.20;8.40;;;;;;;6.94;82.51;98822.56;1771434;79;20862;-48
2022/04/21 07:48:06;;;;;;;12.03;8.87;;;;;;;6.95;82.18;98828.31;1768930;79;20931;-49
2022/04/21 07:50:33;;;;;;;8.00;7.30;;;;;;;6.97;82.09;98826.44;1765078;79;20863;-50
2022/04/21 07:53:13;;;;;;;11.93;8.43;;;;;;;7.00;82.11;98830.28;1739342;80;21220;-50
2022/04/21 07:55:46;;;;;;;9.53;8.33;;;;;;;7.07;82.19;98838.41;1727412;81;21241;-50
2022/04/21 07:58:14;;;;;;;9.23;8.45;;;;;;;7.13;81.90;98839.94;1723232;81;25356;-51
2022/04/21 08:00:41;;;;;;;13.03;10.33;;;;;;;7.20;81.83;98842.23;1721669;81;21112;-50
2022/04/21 08:03:07;;;;;;;10.50;9.27;;;;;;;7.27;81.74;98844.14;1721747;81;21627;-48
2022/04/21 08:05:34;;;;;;;10.53;9.43;;;;;;;7.32;81.63;98838.54;1718726;81;21632;-50
2022/04/21 08:08:03;;;;;;;11.83;8.83;;;;;;;7.34;81.50;98844.22;1720110;81;21560;-49
2022/04/21 08:10:30;;;;;;;9.17;8.27;;;;;;;7.37;81.40;98834.72;1722078;81;21035;-50
2022/04/21 08:12:59;;;;;;;10.67;8.73;;;;;;;7.41;81.15;98833.60;1725567;81;20930;-49
2022/04/21 08:15:33;;;;;;;11.83;8.13;;;;;;;7.43;81.00;98841.09;1723207;81;21487;-49
2022/04/21 08:18:02;;;;;;;9.48;8.58;;;;;;;7.43;81.01;98842.43;1722749;81;21172;-48
2022/04/21 08:20:31;;;;;;;14.23;10.17;;;;;;;7.44;80.85;98847.31;1722580;81;20910;-50
2022/04/21 08:22:58;;;;;;;12.40;9.90;;;;;;;7.44;80.79;98842.83;1720149;81;21865;-50
2022/04/21 08:33:42;;;;;;;10.93;9.80;;;;;;;7.42;80.30;98869.28;1697593;81;21092;-51
2022/04/21 08:36:10;;;;;;;10.25;9.23;;;;;;;7.37;80.23;98864.16;1709860;82;21093;-49
2022/04/21 08:38:38;;;;;;;12.23;9.90;;;;;;;7.37;80.01;98863.30;1708099;82;21069;-50
2022/04/21 08:41:09;;;;;;;12.63;10.73;;;;;;;7.34;79.71;98869.66;1713068;82;21093;-50
2022/04/21 08:43:37;;;;;;;14.27;12.17;;;;;;;7.31;79.77;98875.66;1712108;82;21065;-51
2022/04/21 08:46:04;;;;;;;13.28;11.28;;;;;;;7.30;79.79;98877.45;1705426;82;21554;-51
2022/04/21 08:48:30;;;;;;;11.43;10.33;;;;;;;7.32;79.78;98878.23;1705509;82;21105;-52
2022/04/21 08:50:57;;;;;;;12.53;11.23;;;;;;;7.33;79.69;98876.42;1705059;82;21109;-48
2022/04/21 08:53:24;;;;;;;12.73;10.73;;;;;;;7.34;79.69;98876.81;1708164;81;21118;-50
2022/04/21 08:55:52;;;;;;;9.87;8.87;;;;;;;7.34;79.54;98872.33;1708811;82;21408;-50
2022/04/21 08:58:20;;;;;;;9.07;7.93;;;;;;;7.33;79.42;98875.95;1708045;82;20962;-49
2022/04/21 09:00:51;;;;;;;11.10;8.97;;;;;;;7.33;79.28;98877.29;1703541;82;21669;-50
2022/04/21 09:03:17;;;;;;;8.83;8.03;;;;;;;7.35;79.25;98874.07;1726003;81;21080;-49
2022/04/21 09:05:44;;;;;;;10.30;8.60;;;;;;;7.38;79.20;98878.42;1763707;79;21029;-49
2022/04/21 09:08:22;;;;;;;11.50;9.27;;;;;;;7.42;79.20;98885.34;1768028;79;21896;-49
2022/04/21 09:11:07;;;;;;;10.05;9.05;;;;;;;7.45;79.13;98886.07;1765443;79;20954;-50
2022/04/21 09:13:40;;;;;;;13.93;8.93;;;;;;;7.48;79.11;98892.62;1764549;79;21642;-50
2022/04/21 09:16:08;;;;;;;10.20;9.20;;;;;;;7.46;78.70;98889.62;1766121;79;21351;-49
2022/04/21 09:18:45;;;;;;;11.55;9.45;;;;;;;7.41;78.48;98890.30;1765395;79;21009;-50
2022/04/21 09:21:16;;;;;;;9.23;8.30;;;;;;;7.38;78.60;98885.98;1769806;79;21812;-48
2022/04/21 09:23:45;;;;;;;9.20;7.63;;;;;;;7.40;78.62;98885.91;1764227;79;21005;-51
2022/04/21 09:26:15;;;;;;;9.97;8.93;;;;;;;7.41;78.66;98896.52;1767912;79;21257;-51
2022/04/21 09:28:43;;;;;;;10.53;9.43;;;;;;;7.43;78.63;98895.11;1765542;79;20973;-51
2022/04/21 09:31:10;;;;;;;11.33;9.20;;;;;;;7.42;78.59;98891.56;1716026;80;21089;-52
2022/04/21 09:33:44;;;;;;;12.45;11.05;;;;;;;7.42;78.53;98892.91;1765671;79;21105;-51
2022/04/21 09:36:11;;;;;;;;;;;;;;;7.41;78.48;98893.84;1764796;79;21083;-49
2022/04/21 09:38:38;;;;;;;14.07;9.80;;;;;;;7.41;78.50;98892.97;1761597;79;20199;-49
2022/04/21 09:41:10;;;;;;;16.97;11.10;;;;;;;7.40;78.61;98896.12;1764470;79;21044;-48
2022/04/21 09:43:39;;;;;;;13.43;11.27;;;;;;;7.38;78.53;98894.02;1695840;83;20943;-49
2022/04/21 09:46:21;;;;;;;13.60;11.40;;;;;;;7.34;78.70;98903.59;1762195;79;21026;-49
2022/04/21 09:48:53;;;;;;;14.30;12.00;;;;;;;7.30;78.85;98904.70;1764188;79;21698;-51
2022/04/21 09:51:25;;;;;;;15.80;12.70;;;;;;;7.25;79.02;98906.23;1764619;79;21440;-49
2022/04/21 09:54:02;;;;;;;16.13;11.70;;;;;;;7.21;79.16;98906.88;1767089;79;20950;-53
2022/04/21 09:56:32;;;;;;;15.63;12.30;;;;;;;7.20;79.44;98914.50;1765946;79;21120;-51
2022/04/21 09:59:00;;;;;;;13.67;10.40;;;;;;;7.20;79.56;98918.98;1762112;79;21154;-51
2022/04/21 10:01:27;;;;;;;12.67;10.80;;;;;;;7.21;79.70;98920.73;1761151;79;21056;-51
2022/04/21 10:03:54;;;;;;;10.97;9.00;;;;;;;7.23;80.03;98916.14;1762056;79;21081;-52
2022/04/21 10:06:20;;;;;;;11.60;8.57;;;;;;;7.28;80.21;98918.15;1758688;79;22210;-52
2022/04/21 10:08:49;;;;;;;13.67;9.13;;;;;;;7.33;80.43;98921.45;1761907;79;21093;-52
2022/04/21 10:11:23;;;;;;;11.47;8.47;;;;;;;7.38;80.42;98915.90;1757737;79;20991;-52
2022/04/21 10:13:46;;;;;;;12.97;9.17;;;;;;;7.43;80.27;98917.41;1762108;79;21052;-52
2022/04/21 10:16:16;;;;;;;9.10;7.43;;;;;;;7.42;79.98;98917.47;1738090;79;21514;-50
2022/04/21 10:18:42;;;;;;;9.80;8.33;;;;;;;7.41;80.08;98918.41;1759954;79;20977;-51
2022/04/21 10:21:10;;;;;;;9.03;7.00;;;;;;;7.44;80.13;98925.83;1761717;79;21033;-50
2022/04/21 10:23:38;;;;;;;8.57;5.73;;;;;;;7.48;79.96;98919.41;1760476;79;21378;-50
2022/04/21 10:26:05;;;;;;;5.80;5.37;;;;;;;7.52;79.74;98924.12;1764655;79;21459;-50
2022/04/21 10:28:41;;;;;;;6.63;5.70;;;;;;;7.57;79.95;98931.48;1767892;79;21289;-50
2022/04/21 10:31:31;;;;;;;9.33;5.60;;;;;;;7.64;79.98;98932.03;1765239;79;20962;-52
2022/04/21 10:34:06;;;;;;;7.80;5.97;;;;;;;7.73;79.97;98936.47;1762075;79;21862;-51
2022/04/21 10:36:47;;;;;;;6.55;4.95;;;;;;;7.81;79.70;98942.78;1764633;79;21163;-50
2022/04/21 10:39:25;;;;;;;5.67;5.17;;;;;;;7.80;79.27;98939.70;1769711;79;20876;-52
2022/04/21 10:42:19;;;;;;;6.43;5.93;;;;;;;7.77;79.17;98947.88;1760236;79;20848;-49
2022/04/21 10:44:52;;;;;;;5.93;5.40;;;;;;;7.73;78.99;98955.69;1765308;79;20868;-51
2022/04/21 10:47:36;;;;;;;6.37;4.58;;;;;;;7.72;79.24;98953.95;1764427;79;20942;-49
2022/04/21 10:50:13;;;;;;;5.22;4.72;;;;;;;7.73;79.26;98959.71;1767610;79;21480;-50
2022/04/21 10:58:42;;;;;;;5.20;4.70;;;;;;;7.78;79.05;98956.32;1767507;79;21359;-49
2022/04/21 11:01:12;;;;;;;3.95;3.65;;;;;;;7.76;78.86;98963.55;1761302;79;21046;-52
2022/04/21 11:03:41;;;;;;;4.62;3.37;;;;;;;7.77;79.00;98962.14;1764432;79;21268;-50
2022/04/21 11:06:13;;;;;;;4.95;3.42;;;;;;;7.77;78.97;98964.83;1767770;79;21439;-50
2022/04/21 11:08:42;;;;;;;3.85;3.52;;;;;;;7.80;78.96;98959.33;1764885;79;20942;-51
2022/04/21 11:11:09;;;;;;;2.95;2.58;;;;;;;7.82;78.61;98962.80;1769632;79;20955;-50
2022/04/21 11:13:51;;;;;;;4.27;3.90;;;;;;;7.84;78.24;98961.36;1762215;79;21355;-48
2022/04/21 11:16:45;;;;;;;3.62;3.42;;;;;;;7.81;78.13;98965.55;1763132;79;22005;-52
2022/04/21 11:19:33;;;;;;;3.40;3.12;;;;;;;7.77;77.87;98961.28;1759233;79;21614;-51
2022/04/21 11:22:06;;;;;;;4.47;4.03;;;;;;;7.74;77.75;98970.83;1767100;79;21662;-50
2022/04/21 11:25:01;;;;;;;4.10;3.80;;;;;;;7.73;77.69;98961.05;1768270;79;20942;-50
2022/04/21 11:27:27;;;;;;;3.15;2.85;;;;;;;7.72;77.55;98964.66;1765661;79;21448;-51
2022/04/21 11:30:09;;;;;;;3.08;2.80;;;;;;;7.71;77.57;98973.17;1759974;79;21660;-52
2022/04/21 11:32:36;;;;;;;3.15;2.95;;;;;;;7.72;77.52;98969.55;1763331;79;21030;-50
2022/04/21 11:35:11;;;;;;;3.57;3.37;;;;;;;7.73;77.25;98973.10;1757882;79;21030;-50
2022/04/21 11:37:59;;;;;;;4.05;3.85;;;;;;;7.67;77.41;98972.91;1759837;79;21077;-50
2022/04/21 11:40:36;;;;;;;3.58;3.27;;;;;;;7.65;77.49;98983.33;1763043;79;20986;-49
2022/04/21 11:43:16;;;;;;;3.07;2.77;;;;;;;7.61;77.30;98983.93;1765114;79;21066;-51
2022/04/21 11:46:05;;;;;;;2.60;2.40;;;;;;;7.58;77.27;98978.24;1764755;79;21045;-51
2022/04/21 11:48:34;;;;;;;2.67;2.47;;;;;;;7.58;77.36;98982.26;1769803;79;21315;-52
2022/04/21 11:51:01;;;;;;;3.20;2.22;;;;;;;7.58;77.31;98980.05;1762279;79;20919;-53
2022/04/21 11:53:29;;;;;;;4.25;3.15;;;;;;;7.62;77.41;98985.67;1765688;79;21076;-52
2022/04/21 11:55:56;;;;;;;2.13;1.80;;;;;;;7.69;77.45;98980.88;1765137;79;21194;-52
2022/04/21 11:58:38;;;;;;;2.42;2.30;;;;;;;7.78;77.54;98981.30;1761855;79;21104;-53
2022/04/21 12:06:49;;;;;;;1.55;1.37;;;;;;;8.11;76.74;98978.75;1763347;79;21060;-50
2022/04/21 12:09:23;;;;;;;1.20;1.10;;;;;;;8.23;76.50;98977.27;1765789;79;21377;-51
2022/04/21 12:11:57;;;;;;;1.22;1.12;;;;;;;8.30;75.74;98980.90;1762185;79;20988;-51
2022/04/21 12:14:24;;;;;;;1.45;0.80;;;;;;;8.32;75.15;98979.05;1763288;79;21581;-50
2022/04/21 12:16:57;;;;;;;1.30;0.90;;;;;;;8.34;74.73;98983.84;1760158;79;21479;-52
2022/04/21 12:19:38;;;;;;;1.10;1.00;;;;;;;8.33;74.58;98980.78;1762555;79;21045;-50
2022/04/21 12:22:17;;;;;;;0.98;0.80;;;;;;;8.34;74.62;98982.49;1764141;79;21500;-51
2022/04/21 12:24:52;;;;;;;0.72;0.70;;;;;;;8.34;74.48;98991.88;1725421;81;21343;-50
2022/04/21 12:27:35;;;;;;;1.00;0.90;;;;;;;8.35;74.42;98982.89;1762704;79;21649;-49
2022/04/21 12:30:11;;;;;;;1.10;0.80;;;;;;;8.33;73.90;98990.64;1765043;79;21535;-49
2022/04/21 12:32:46;;;;;;;6.25;5.30;;;;;;;8.29;73.62;98989.02;1764148;79;26503;-50
2022/04/21 12:35:14;;;;;;;1.00;0.90;;;;;;;8.26;73.44;98987.34;1736530;80;21076;-52
2022/04/21 12:40:40;;;;;;;1.17;0.60;;;;;;;8.25;73.45;98998.18;1757320;79;21088;-51